Map

Track Data

SID SEASON NUMBER BASIN SUBBASIN NAME ISO_TIME NATURE LAT LON WMO_WIND WMO_PRES WMO_AGENCY TRACK_TYPE DIST2LAND LANDFALL IFLAG USA_AGENCY USA_ATCF_ID USA_LAT USA_LON USA_RECORD USA_STATUS USA_WIND USA_PRES USA_SSHS USA_R34_NE USA_R34_SE USA_R34_SW USA_R34_NW USA_R50_NE USA_R50_SE USA_R50_SW USA_R50_NW USA_R64_NE USA_R64_SE USA_R64_SW USA_R64_NW USA_POCI USA_ROCI USA_RMW USA_EYE TOKYO_LAT TOKYO_LON TOKYO_GRADE TOKYO_WIND TOKYO_PRES TOKYO_R50_DIR TOKYO_R50_LONG TOKYO_R50_SHORT TOKYO_R30_DIR TOKYO_R30_LONG TOKYO_R30_SHORT TOKYO_LAND CMA_LAT CMA_LON CMA_CAT CMA_WIND CMA_PRES HKO_LAT HKO_LON HKO_CAT HKO_WIND HKO_PRES NEWDELHI_LAT NEWDELHI_LON NEWDELHI_GRADE NEWDELHI_WIND NEWDELHI_PRES NEWDELHI_CI NEWDELHI_DP NEWDELHI_POCI REUNION_LAT REUNION_LON REUNION_TYPE REUNION_WIND REUNION_PRES REUNION_TNUM REUNION_CI REUNION_RMW REUNION_R34_NE REUNION_R34_SE REUNION_R34_SW REUNION_R34_NW REUNION_R50_NE REUNION_R50_SE REUNION_R50_SW REUNION_R50_NW REUNION_R64_NE REUNION_R64_SE REUNION_R64_SW REUNION_R64_NW BOM_LAT BOM_LON BOM_TYPE BOM_WIND BOM_PRES BOM_TNUM BOM_CI BOM_RMW BOM_R34_NE BOM_R34_SE BOM_R34_SW BOM_R34_NW BOM_R50_NE BOM_R50_SE BOM_R50_SW BOM_R50_NW BOM_R64_NE BOM_R64_SE BOM_R64_SW BOM_R64_NW BOM_ROCI BOM_POCI BOM_EYE BOM_POS_METHOD BOM_PRES_METHOD NADI_LAT NADI_LON NADI_CAT NADI_WIND NADI_PRES WELLINGTON_LAT WELLINGTON_LON WELLINGTON_WIND WELLINGTON_PRES DS824_LAT DS824_LON DS824_STAGE DS824_WIND DS824_PRES TD9636_LAT TD9636_LON TD9636_STAGE TD9636_WIND TD9636_PRES TD9635_LAT TD9635_LON TD9635_WIND TD9635_PRES TD9635_ROCI NEUMANN_LAT NEUMANN_LON NEUMANN_CLASS NEUMANN_WIND NEUMANN_PRES MLC_LAT MLC_LON MLC_CLASS MLC_WIND MLC_PRES USA_GUST BOM_GUST BOM_GUST_PER REUNION_GUST REUNION_GUST_PER USA_SEAHGT USA_SEARAD_NE USA_SEARAD_SE USA_SEARAD_SW USA_SEARAD_NW STORM_SPEED STORM_DIR
1967233N21343 1967 79 NA NA NOT_NAMED 1967-08-20 12:00:00 TS 21.1000 -17.0000 hurdat_atl main 0 0 O_____________ hurdat_atl AL101967 21.1000 -17.0000 TD -1 9 265
1967233N21343 1967 79 NA NA NOT_NAMED 1967-08-20 15:00:00 TS 21.0630 -17.4702 main 51 47 P_____________ AL101967 21.0630 -17.4702 TD -1 8 255
1967233N21343 1967 79 NA NA NOT_NAMED 1967-08-20 18:00:00 TS 20.9000 -17.8000 hurdat_atl main 73 72 O_____________ hurdat_atl AL101967 20.9000 -17.8000 TD -1 7 219
1967233N21343 1967 79 NA NA NOT_NAMED 1967-08-20 21:00:00 TS 20.5370 -17.9270 main 89 89 P_____________ AL101967 20.5370 -17.9270 TD -1 9 199
1967233N21343 1967 79 NA NA NOT_NAMED 1967-08-21 00:00:00 TS 20.1000 -18.1000 hurdat_atl main 130 130 O_____________ hurdat_atl AL101967 20.1000 -18.1000 TD -1 10 219
1967233N21343 1967 79 NA NA NOT_NAMED 1967-08-21 03:00:00 TS 19.7504 -18.6127 main 192 192 P_____________ AL101967 19.7504 -18.6127 TD -1 13 236
1967233N21343 1967 79 NA NA NOT_NAMED 1967-08-21 06:00:00 TS 19.4000 -19.2000 hurdat_atl main 269 269 O_____________ hurdat_atl AL101967 19.4000 -19.2000 TD -1 12 231
1967233N21343 1967 79 NA NA NOT_NAMED 1967-08-21 09:00:00 TS 18.9921 -19.6072 main 328 328 P_____________ AL101967 18.9921 -19.6072 TD -1 11 223
1967233N21343 1967 79 NA NA NOT_NAMED 1967-08-21 12:00:00 TS 18.6000 -20.0000 hurdat_atl main 378 378 O_____________ hurdat_atl AL101967 18.6000 -20.0000 TD -1 11 231
1967233N21343 1967 79 NA NA NOT_NAMED 1967-08-21 15:00:00 TS 18.3149 -20.4770 main 438 438 P_____________ AL101967 18.3149 -20.4770 TD -1 11 238
1967233N21343 1967 79 NA NA NOT_NAMED 1967-08-21 18:00:00 TS 18.0000 -21.0000 hurdat_atl main 499 499 O_____________ hurdat_atl AL101967 18.0000 -21.0000 TD -1 13 232
1967233N21343 1967 79 NA NA NOT_NAMED 1967-08-21 21:00:00 TS 17.5225 -21.5502 main 538 532 P_____________ AL101967 17.5225 -21.5502 TD -1 15 226
1967233N21343 1967 79 NA NA NOT_NAMED 1967-08-22 00:00:00 TS 17.0000 -22.1000 hurdat_atl main 555 555 O_____________ hurdat_atl AL101967 17.0000 -22.1000 TD -1 14 225
1967233N21343 1967 79 NA NA NOT_NAMED 1967-08-22 03:00:00 TS 16.5123 -22.6074 main 582 582 P_____________ AL101967 16.5123 -22.6074 TD -1 13 227
1967233N21343 1967 79 NA NA NOT_NAMED 1967-08-22 06:00:00 TS 16.1000 -23.1000 hurdat_atl main 620 620 O_____________ hurdat_atl AL101967 16.1000 -23.1000 TD -1 12 234
1967233N21343 1967 79 NA NA NOT_NAMED 1967-08-22 09:00:00 TS 15.8124 -23.5997 main 666 666 P_____________ AL101967 15.8124 -23.5997 TD -1 11 243
1967233N21343 1967 79 NA NA NOT_NAMED 1967-08-22 12:00:00 TS 15.6000 -24.1000 hurdat_atl main 715 715 O_____________ hurdat_atl AL101967 15.6000 -24.1000 TD -1 10 246
1967233N21343 1967 79 NA NA NOT_NAMED 1967-08-22 15:00:00 TS 15.3848 -24.5924 main 766 766 P_____________ AL101967 15.3848 -24.5924 TD -1 10 247
1967233N21343 1967 79 NA NA NOT_NAMED 1967-08-22 18:00:00 TS 15.2000 -25.1000 hurdat_atl main 818 818 O_____________ hurdat_atl AL101967 15.2000 -25.1000 TD -1 11 251
1967233N21343 1967 79 NA NA NOT_NAMED 1967-08-22 21:00:00 TS 15.0498 -25.6273 main 871 871 P_____________ AL101967 15.0498 -25.6273 TD -1 11 254
1967233N21343 1967 79 NA NA NOT_NAMED 1967-08-23 00:00:00 TS 14.9000 -26.2000 hurdat_atl main 935 935 O_____________ hurdat_atl AL101967 14.9000 -26.2000 TD -1 12 254
1967233N21343 1967 79 NA NA NOT_NAMED 1967-08-23 03:00:00 TS 14.7224 -26.8273 main 1000 1000 P_____________ AL101967 14.7224 -26.8273 TD -1 13 252
1967233N21343 1967 79 NA NA NOT_NAMED 1967-08-23 06:00:00 TS 14.5000 -27.5000 hurdat_atl main 1076 1076 O_____________ hurdat_atl AL101967 14.5000 -27.5000 TD -1 14 250
1967233N21343 1967 79 NA NA NOT_NAMED 1967-08-23 09:00:00 TS 14.2374 -28.1923 main 1153 1153 P_____________ AL101967 14.2374 -28.1923 TD -1 15 246
1967233N21343 1967 79 NA NA NOT_NAMED 1967-08-23 12:00:00 TS 13.9000 -28.9000 hurdat_atl main 1232 1232 O_____________ hurdat_atl AL101967 13.9000 -28.9000 TD -1 16 239
1967233N21343 1967 79 NA NA NOT_NAMED 1967-08-23 15:00:00 TS 13.4197 -29.5853 main 1313 1313 P_____________ AL101967 13.4197 -29.5853 TD -1 16 237
1967233N21343 1967 79 NA NA NOT_NAMED 1967-08-23 18:00:00 TS 13.0000 -30.3000 hurdat_atl main 1395 1395 O_____________ hurdat_atl AL101967 13.0000 -30.3000 TD -1 15 249
1967233N21343 1967 79 NA NA NOT_NAMED 1967-08-23 21:00:00 TS 12.8771 -31.0542 main 1482 1482 P_____________ AL101967 12.8771 -31.0542 TD -1 16 263
1967233N21343 1967 79 NA NA NOT_NAMED 1967-08-24 00:00:00 TS 12.8000 -31.9000 hurdat_atl main 1570 1570 O_____________ hurdat_atl AL101967 12.8000 -31.9000 TD -1 19 258
1967233N21343 1967 79 NA NA NOT_NAMED 1967-08-24 03:00:00 TS 12.5006 -32.9381 main 1683 1683 P_____________ AL101967 12.5006 -32.9381 TD -1 20 253
1967233N21343 1967 79 NA NA NOT_NAMED 1967-08-24 06:00:00 TS 12.2000 -33.9000 hurdat_atl main 1796 1779 O_____________ hurdat_atl AL101967 12.2000 -33.9000 TD -1 16 254
1967233N21343 1967 79 NA NA NOT_NAMED 1967-08-24 09:00:00 TS 12.0496 -34.5495 main 1769 1751 P_____________ AL101967 12.0496 -34.5495 TD -1 11 259
1967233N21343 1967 79 NA NA NOT_NAMED 1967-08-24 12:00:00 TS 12.0000 -35.0000 hurdat_atl main 1751 O_____________ hurdat_atl AL101967 12.0000 -35.0000 TD -1 9 264

About IBTrACS Database

This database is a web-friendly format of International Best Track Archive for Climate Stewardship (IBTrACS), a global best track data archive curated by NOAA dating back to 1842.

Updated: 2021-10-08